Time;durP1;ratioP1;P1;durP2;ratioP2;P2;SDS_P1;SDS_P2;PMS_P1;PMS_P2;Temp;Humidity;BMP_temperature;BMP_pressure;BME280_temperature;BME280_humidity;BME280_pressure;Samples;Min_cycle;Max_cycle;Signal;HPM_P1;HPM_P2
2022/03/24 00:00:16;;;;;;;50.40;31.13;;;6.00;74.80;;;;;;5055408;28;20856;-81
2022/03/24 00:02:43;;;;;;;48.83;30.30;;;6.00;74.80;;;;;;5052682;28;20239;-80
2022/03/24 00:05:11;;;;;;;44.37;27.00;;;6.00;74.60;;;;;;5053504;28;20307;-84
2022/03/24 00:07:38;;;;;;;45.67;28.67;;;6.00;74.60;;;;;;5051876;28;20223;-83
2022/03/24 00:10:07;;;;;;;43.60;28.97;;;5.90;74.70;;;;;;5051737;28;20226;-83
2022/03/24 00:12:35;;;;;;;45.70;29.53;;;5.90;75.00;;;;;;5048652;28;20228;-84
2022/03/24 00:15:01;;;;;;;49.00;28.97;;;5.90;75.00;;;;;;5051795;28;20293;-83
2022/03/24 00:17:31;;;;;;;49.03;29.83;;;5.90;74.90;;;;;;5049440;28;20227;-83
2022/03/24 00:19:58;;;;;;;43.07;29.40;;;5.90;75.20;;;;;;5048568;28;20932;-82
2022/03/24 00:22:25;;;;;;;50.33;30.33;;;5.90;75.50;;;;;;5052474;28;20331;-84
2022/03/24 00:24:52;;;;;;;46.90;29.90;;;5.90;75.70;;;;;;5048755;28;20224;-82
2022/03/24 00:27:20;;;;;;;49.80;29.70;;;5.90;75.60;;;;;;5046975;28;20224;-81
2022/03/24 00:29:47;;;;;;;46.67;28.13;;;5.90;75.80;;;;;;5047437;28;20238;-83
2022/03/24 00:32:15;;;;;;;46.17;28.40;;;5.90;75.70;;;;;;5048290;28;20224;-82
2022/03/24 00:34:41;;;;;;;45.87;29.27;;;5.90;75.70;;;;;;5048238;28;20705;-81
2022/03/24 00:37:10;;;;;;;44.77;29.53;;;5.90;75.70;;;;;;5048310;28;20238;-82
2022/03/24 00:39:40;;;;;;;44.30;27.93;;;5.90;75.90;;;;;;5049569;28;20246;-85
2022/03/24 00:42:11;;;;;;;44.73;28.43;;;5.80;75.90;;;;;;5048878;28;20228;-85
2022/03/24 00:44:42;;;;;;;48.40;28.83;;;5.80;76.20;;;;;;5049049;28;20247;-77
2022/03/24 00:47:10;;;;;;;47.93;29.07;;;5.80;76.10;;;;;;5044876;28;20837;-79
2022/03/24 00:49:39;;;;;;;46.03;28.70;;;5.80;75.80;;;;;;5043902;28;20259;-80
2022/03/24 00:52:09;;;;;;;45.90;28.37;;;5.80;75.80;;;;;;5045508;28;20790;-80
2022/03/24 00:54:36;;;;;;;46.87;29.07;;;5.70;76.00;;;;;;5043282;28;20251;-79
2022/03/24 00:57:03;;;;;;;46.20;29.60;;;5.70;76.00;;;;;;5047817;28;20646;-80
2022/03/24 00:59:30;;;;;;;43.07;27.53;;;5.70;76.00;;;;;;5048703;28;20705;-80
2022/03/24 01:01:59;;;;;;;46.67;29.27;;;5.70;76.30;;;;;;5046346;28;20795;-80
2022/03/24 01:04:25;;;;;;;44.30;27.53;;;5.70;76.30;;;;;;5042281;28;20324;-79
2022/03/24 01:06:52;;;;;;;45.50;28.67;;;5.70;76.20;;;;;;5046020;28;20604;-80
2022/03/24 01:09:19;;;;;;;50.17;30.30;;;5.60;76.10;;;;;;5043268;28;20319;-80
2022/03/24 01:11:46;;;;;;;48.80;28.80;;;5.60;76.20;;;;;;5043875;28;20219;-80
2022/03/24 01:14:16;;;;;;;45.70;29.37;;;5.60;76.20;;;;;;5044491;28;20716;-80
2022/03/24 01:16:44;;;;;;;46.00;29.87;;;5.50;76.30;;;;;;5044665;28;21951;-80
2022/03/24 01:19:12;;;;;;;45.33;29.00;;;5.50;76.40;;;;;;5044166;28;20215;-80
2022/03/24 01:21:39;;;;;;;49.23;29.30;;;5.50;76.30;;;;;;5044655;28;20228;-80
2022/03/24 01:24:06;;;;;;;48.13;29.60;;;5.40;76.10;;;;;;5049885;28;20776;-82
2022/03/24 01:26:33;;;;;;;45.27;28.33;;;5.40;76.40;;;;;;5049004;28;20232;-80
2022/03/24 01:29:00;;;;;;;41.20;26.73;;;5.30;76.40;;;;;;5053372;28;20700;-79
2022/03/24 01:31:27;;;;;;;46.77;29.60;;;5.20;75.90;;;;;;5045925;28;20248;-80
2022/03/24 01:33:54;;;;;;;49.20;29.70;;;5.20;76.10;;;;;;5049048;28;20228;-79
2022/03/24 01:36:23;;;;;;;47.47;29.00;;;5.20;76.50;;;;;;5048137;28;20303;-81
2022/03/24 01:38:49;;;;;;;49.87;28.80;;;5.10;76.90;;;;;;5047301;28;20866;-80
2022/03/24 01:41:19;;;;;;;46.87;29.97;;;5.10;77.00;;;;;;5046514;28;20274;-80
2022/03/24 01:43:46;;;;;;;48.23;29.83;;;5.10;77.20;;;;;;5048796;28;20882;-80
2022/03/24 01:46:14;;;;;;;46.80;29.57;;;5.00;77.30;;;;;;5050312;28;20223;-81
2022/03/24 01:48:42;;;;;;;44.00;29.20;;;5.00;77.50;;;;;;5047000;28;20242;-80
2022/03/24 01:51:09;;;;;;;42.73;28.93;;;4.90;77.90;;;;;;5047134;28;20238;-80
2022/03/24 01:53:37;;;;;;;45.60;28.50;;;4.90;77.90;;;;;;5048137;28;20693;-79
2022/03/24 01:56:07;;;;;;;45.47;28.57;;;4.80;78.30;;;;;;5044309;28;20292;-79
2022/03/24 01:58:38;;;;;;;48.87;28.97;;;4.80;78.40;;;;;;5046770;28;20235;-80
2022/03/24 02:01:27;;;;;;;50.43;30.50;;;4.70;78.50;;;;;;5042152;28;20219;-79
2022/03/24 02:03:55;;;;;;;47.47;29.23;;;4.70;79.60;;;;;;5047938;28;20679;-78
2022/03/24 02:06:22;;;;;;;48.03;30.10;;;4.60;79.00;;;;;;5046400;28;20310;-79
2022/03/24 02:08:50;;;;;;;42.30;28.00;;;4.60;79.10;;;;;;5045121;28;20645;-78
2022/03/24 02:11:17;;;;;;;48.57;30.13;;;4.50;79.40;;;;;;5046100;28;20826;-79
2022/03/24 02:13:44;;;;;;;46.73;29.63;;;4.50;79.50;;;;;;5045898;28;20237;-77
2022/03/24 02:16:11;;;;;;;51.60;29.83;;;4.40;79.80;;;;;;5046630;28;20229;-78
2022/03/24 02:18:38;;;;;;;44.57;28.10;;;4.40;80.10;;;;;;5050878;28;20226;-80
2022/03/24 02:21:05;;;;;;;52.83;29.93;;;4.30;80.10;;;;;;5046488;28;20318;-78
2022/03/24 02:23:33;;;;;;;43.17;27.47;;;4.30;80.20;;;;;;5047860;28;20725;-79
2022/03/24 02:26:02;;;;;;;50.67;30.33;;;4.20;80.50;;;;;;5048677;28;20688;-79
2022/03/24 02:28:30;;;;;;;44.53;29.77;;;4.20;80.80;;;;;;5048033;28;20233;-78
2022/03/24 02:30:57;;;;;;;48.00;28.73;;;4.20;81.00;;;;;;5045728;28;20224;-79
2022/03/24 02:33:24;;;;;;;49.60;29.67;;;4.10;81.20;;;;;;5046544;28;20944;-78
2022/03/24 02:35:52;;;;;;;46.23;27.67;;;4.10;81.20;;;;;;5047332;28;20233;-78
2022/03/24 02:38:20;;;;;;;42.73;26.40;;;4.00;81.30;;;;;;5047392;28;20311;-79
2022/03/24 02:40:49;;;;;;;45.97;27.53;;;4.00;81.10;;;;;;5048104;28;20233;-78
2022/03/24 02:43:18;;;;;;;43.57;28.07;;;4.00;81.30;;;;;;5047660;28;20227;-78
2022/03/24 02:45:46;;;;;;;46.83;27.87;;;3.90;81.50;;;;;;5047846;28;20222;-79
2022/03/24 02:48:12;;;;;;;47.00;28.17;;;3.90;81.30;;;;;;5047669;28;20250;-78
2022/03/24 02:50:40;;;;;;;43.87;26.73;;;3.80;81.60;;;;;;5047572;28;20239;-78
2022/03/24 02:53:06;;;;;;;44.13;27.10;;;3.80;81.90;;;;;;5042197;28;20226;-77
2022/03/24 02:55:33;;;;;;;44.27;27.70;;;3.70;82.20;;;;;;5047872;28;20230;-78
2022/03/24 02:58:02;;;;;;;46.63;28.57;;;3.70;82.30;;;;;;5043315;28;20240;-79
2022/03/24 03:00:28;;;;;;;44.60;26.93;;;3.70;82.60;;;;;;5048289;28;20240;-79
2022/03/24 03:02:55;;;;;;;43.57;26.93;;;3.60;82.90;;;;;;5049143;28;20235;-78
2022/03/24 03:05:22;;;;;;;50.20;29.43;;;3.60;83.10;;;;;;5047494;28;20226;-78
2022/03/24 03:07:49;;;;;;;44.90;28.43;;;3.50;83.00;;;;;;5042525;28;20235;-79
2022/03/24 03:10:16;;;;;;;44.13;28.20;;;3.50;83.10;;;;;;5046171;28;20221;-79
2022/03/24 03:12:46;;;;;;;49.90;30.50;;;3.50;83.20;;;;;;5046249;28;20238;-79
2022/03/24 03:15:14;;;;;;;45.20;27.73;;;3.50;83.20;;;;;;5039073;28;20568;-79
2022/03/24 03:17:41;;;;;;;43.43;27.50;;;3.50;83.20;;;;;;5046332;28;20434;-79
2022/03/24 03:20:10;;;;;;;46.97;28.13;;;3.50;83.20;;;;;;5047066;28;20749;-79
2022/03/24 03:22:37;;;;;;;44.87;27.43;;;3.50;83.60;;;;;;5046568;28;20664;-78
2022/03/24 03:25:05;;;;;;;48.87;29.40;;;3.50;83.40;;;;;;5046656;28;20283;-78
2022/03/24 03:27:32;;;;;;;47.47;28.60;;;3.50;83.50;;;;;;5052890;28;20233;-80
2022/03/24 03:29:59;;;;;;;44.17;28.17;;;3.50;83.50;;;;;;5046715;28;20228;-78
2022/03/24 03:32:27;;;;;;;46.97;27.90;;;3.50;83.50;;;;;;5046485;28;20257;-78
2022/03/24 03:34:53;;;;;;;45.50;28.33;;;3.50;83.30;;;;;;5045292;28;20228;-77
2022/03/24 03:37:20;;;;;;;43.77;26.80;;;3.50;83.20;;;;;;5046355;28;20543;-79
2022/03/24 03:39:47;;;;;;;46.63;26.93;;;3.40;83.50;;;;;;5047868;28;20229;-78
2022/03/24 03:42:14;;;;;;;43.73;26.60;;;3.40;83.50;;;;;;5047902;28;20632;-78
2022/03/24 03:44:40;;;;;;;46.73;28.30;;;3.30;83.30;;;;;;5046126;28;20246;-79
2022/03/24 03:47:07;;;;;;;47.00;28.33;;;3.30;83.20;;;;;;5051375;28;20229;-78
2022/03/24 03:49:36;;;;;;;41.73;25.97;;;3.30;83.60;;;;;;5047422;28;20231;-78
2022/03/24 03:52:03;;;;;;;43.97;26.67;;;3.20;83.90;;;;;;5046303;28;20246;-75
2022/03/24 03:54:30;;;;;;;42.67;27.37;;;3.20;83.50;;;;;;5045413;28;20232;-77
2022/03/24 03:56:58;;;;;;;39.67;25.23;;;3.20;84.00;;;;;;5046329;28;20236;-78
2022/03/24 03:59:24;;;;;;;43.60;26.60;;;3.20;83.80;;;;;;5044206;28;20706;-77
2022/03/24 04:01:52;;;;;;;40.63;26.00;;;3.10;82.90;;;;;;5045282;28;20729;-77
2022/03/24 04:04:19;;;;;;;43.63;25.83;;;3.10;82.50;;;;;;5039465;28;20224;-78
2022/03/24 04:06:47;;;;;;;40.53;25.43;;;3.00;82.50;;;;;;5046538;28;20229;-77
2022/03/24 04:09:13;;;;;;;41.57;24.43;;;3.00;83.30;;;;;;5043905;28;20232;-76
2022/03/24 04:11:40;;;;;;;42.13;24.50;;;2.90;83.10;;;;;;5045012;28;20237;-77
2022/03/24 04:14:07;;;;;;;39.00;25.97;;;2.80;83.00;;;;;;5044884;28;20255;-77
2022/03/24 04:16:34;;;;;;;43.83;26.53;;;2.80;83.10;;;;;;5044880;28;20229;-78
2022/03/24 04:19:05;;;;;;;47.40;28.23;;;2.70;83.10;;;;;;5046766;28;20225;-80
2022/03/24 04:21:31;;;;;;;42.23;26.27;;;2.70;83.90;;;;;;5051335;28;20713;-77
2022/03/24 04:23:59;;;;;;;46.33;26.47;;;2.60;84.50;;;;;;5045910;28;20220;-76
2022/03/24 04:26:26;;;;;;;49.43;28.77;;;2.60;84.60;;;;;;5045601;28;20236;-77
2022/03/24 04:28:53;;;;;;;47.97;27.13;;;2.50;84.70;;;;;;5044328;28;20231;-77
2022/03/24 04:31:22;;;;;;;43.40;27.23;;;2.50;84.80;;;;;;5043999;28;20426;-77
2022/03/24 04:33:49;;;;;;;43.93;26.97;;;2.40;84.40;;;;;;5047236;28;20231;-76
2022/03/24 04:36:16;;;;;;;46.70;27.67;;;2.40;84.90;;;;;;5051897;28;20216;-77
2022/03/24 04:38:42;;;;;;;42.83;25.47;;;2.40;85.70;;;;;;5046073;28;20247;-78
2022/03/24 04:41:11;;;;;;;43.50;27.13;;;2.30;85.30;;;;;;5047586;28;20252;-76
2022/03/24 04:43:38;;;;;;;45.30;26.47;;;2.30;85.00;;;;;;5040433;28;20930;-78
2022/03/24 04:46:04;;;;;;;47.73;27.07;;;2.30;85.00;;;;;;5039473;28;20225;-78
2022/03/24 04:48:35;;;;;;;54.47;29.50;;;2.20;85.00;;;;;;5045256;28;20236;-77
2022/03/24 04:51:04;;;;;;;50.93;30.47;;;2.20;85.90;;;;;;5044827;28;20328;-77
2022/03/24 04:53:31;;;;;;;47.77;29.63;;;2.20;86.60;;;;;;5047039;28;20310;-77
2022/03/24 04:55:58;;;;;;;51.30;29.50;;;2.10;87.10;;;;;;5054132;28;20219;-77
2022/03/24 04:58:27;;;;;;;49.10;28.90;;;2.10;87.40;;;;;;5046288;28;20228;-79
2022/03/24 05:00:54;;;;;;;49.33;28.97;;;2.10;87.90;;;;;;5048786;28;20242;-78
2022/03/24 05:03:21;;;;;;;44.10;28.67;;;2.10;88.00;;;;;;5049727;28;20233;-79
2022/03/24 05:05:48;;;;;;;45.33;27.93;;;2.10;88.20;;;;;;5049114;28;20231;-78
2022/03/24 05:08:15;;;;;;;53.50;30.17;;;2.00;87.90;;;;;;5054891;28;20257;-78
2022/03/24 05:10:41;;;;;;;51.37;29.77;;;2.00;87.70;;;;;;5049750;28;20230;-79
2022/03/24 05:13:08;;;;;;;48.80;29.67;;;2.00;88.40;;;;;;5050623;28;20219;-78
2022/03/24 05:15:36;;;;;;;49.17;30.03;;;2.00;88.70;;;;;;5049138;28;20228;-78
2022/03/24 05:18:04;;;;;;;51.93;30.17;;;2.00;89.20;;;;;;5053520;28;20473;-78
2022/03/24 05:20:31;;;;;;;50.47;29.63;;;2.00;89.40;;;;;;5048746;28;20637;-77
2022/03/24 05:22:57;;;;;;;47.13;28.70;;;1.90;89.50;;;;;;5045596;28;20266;-76
2022/03/24 05:25:25;;;;;;;44.20;27.70;;;2.00;89.40;;;;;;5056820;28;20249;-78
2022/03/24 05:27:51;;;;;;;50.77;29.30;;;1.90;89.80;;;;;;5049861;28;20234;-76
2022/03/24 05:30:18;;;;;;;49.23;28.97;;;1.90;88.90;;;;;;5050098;28;20223;-77
2022/03/24 05:32:46;;;;;;;53.10;30.17;;;1.90;89.50;;;;;;5049583;28;20217;-77
2022/03/24 05:35:13;;;;;;;49.97;30.03;;;2.00;90.10;;;;;;5050152;28;20296;-78
2022/03/24 05:37:41;;;;;;;51.13;28.53;;;1.90;90.00;;;;;;5048064;28;20340;-77
2022/03/24 05:40:10;;;;;;;49.90;28.40;;;2.00;90.20;;;;;;5046224;28;20302;-82
2022/03/24 05:42:36;;;;;;;45.53;28.30;;;2.00;90.20;;;;;;5055043;28;20236;-81
2022/03/24 05:45:04;;;;;;;49.97;29.33;;;2.00;90.00;;;;;;5058570;28;20219;-80
2022/03/24 05:47:31;;;;;;;52.07;29.83;;;2.00;90.10;;;;;;5053075;28;20856;-80
2022/03/24 05:50:01;;;;;;;45.67;27.17;;;2.00;90.20;;;;;;5048896;28;20220;-80
2022/03/24 05:52:49;;;;;;;46.40;28.60;;;2.10;90.10;;;;;;5048608;28;20740;-80
2022/03/24 05:55:16;;;;;;;43.60;27.00;;;2.20;89.60;;;;;;5050733;28;20216;-80
2022/03/24 05:57:43;;;;;;;45.90;26.27;;;2.20;90.00;;;;;;5050811;28;20227;-80
2022/03/24 06:00:11;;;;;;;46.40;26.43;;;2.30;89.90;;;;;;5046637;28;20229;-79
2022/03/24 06:02:41;;;;;;;49.67;28.67;;;2.40;89.60;;;;;;5049134;28;20216;-81
2022/03/24 06:05:12;;;;;;;45.73;27.13;;;2.60;89.70;;;;;;5041222;28;20214;-81
2022/03/24 06:07:38;;;;;;;42.57;27.73;;;2.70;90.10;;;;;;5052160;28;20221;-81
2022/03/24 06:10:08;;;;;;;39.67;26.17;;;2.80;89.60;;;;;;5048112;28;20237;-80
2022/03/24 06:12:35;;;;;;;47.07;28.80;;;3.00;89.00;;;;;;5049865;28;20232;-87
2022/03/24 06:15:02;;;;;;;41.80;27.17;;;3.20;89.00;;;;;;5050001;28;20227;-81
2022/03/24 06:17:29;;;;;;;44.23;28.10;;;3.30;89.00;;;;;;5053117;28;21060;-82
2022/03/24 06:19:56;;;;;;;44.73;27.83;;;3.40;88.40;;;;;;5050434;28;20232;-81
2022/03/24 06:22:24;;;;;;;43.37;27.37;;;3.50;88.60;;;;;;5050464;28;20235;-80
2022/03/24 06:24:50;;;;;;;43.20;27.33;;;3.70;89.10;;;;;;5046888;28;20304;-80
2022/03/24 06:27:17;;;;;;;45.77;27.50;;;3.80;88.80;;;;;;5044049;28;20579;-80
2022/03/24 06:29:44;;;;;;;43.50;27.43;;;4.00;89.30;;;;;;5048242;28;20235;-83
2022/03/24 06:32:11;;;;;;;42.90;27.03;;;4.20;89.20;;;;;;5052830;28;20269;-83
2022/03/24 06:34:38;;;;;;;46.03;29.33;;;4.40;89.10;;;;;;5051640;28;20276;-84
2022/03/24 06:37:05;;;;;;;47.87;28.63;;;4.60;88.60;;;;;;5050832;28;20289;-83
2022/03/24 06:39:33;;;;;;;50.37;30.23;;;4.80;88.20;;;;;;5056617;28;20250;-83
2022/03/24 06:42:02;;;;;;;46.50;29.00;;;5.00;87.70;;;;;;5051621;28;20367;-83
2022/03/24 06:44:29;;;;;;;46.47;28.77;;;5.20;87.40;;;;;;5056042;28;20235;-85
2022/03/24 06:46:57;;;;;;;45.87;28.73;;;5.30;87.50;;;;;;5051403;28;20323;-83
2022/03/24 06:49:24;;;;;;;48.77;30.17;;;5.50;87.70;;;;;;5052479;28;20380;-84
2022/03/24 06:51:51;;;;;;;49.47;29.53;;;5.70;87.50;;;;;;5049765;28;20228;-82
2022/03/24 06:54:17;;;;;;;46.13;29.43;;;5.90;87.00;;;;;;5051424;28;20223;-83
2022/03/24 06:56:45;;;;;;;42.23;29.20;;;6.00;86.30;;;;;;5051160;28;20246;-80
2022/03/24 06:59:12;;;;;;;50.10;30.07;;;6.10;85.90;;;;;;5050248;28;20822;-80
2022/03/24 07:01:40;;;;;;;48.90;31.70;;;6.20;86.00;;;;;;5049487;28;20737;-79
2022/03/24 07:04:06;;;;;;;47.93;31.07;;;6.30;85.90;;;;;;5050461;28;20224;-82
2022/03/24 07:06:33;;;;;;;53.03;29.93;;;6.30;85.10;;;;;;5048183;28;20236;-81
2022/03/24 07:09:00;;;;;;;48.03;29.70;;;6.40;84.50;;;;;;5051303;28;20224;-81
2022/03/24 07:11:27;;;;;;;49.73;31.40;;;6.50;85.30;;;;;;5050771;28;20232;-81
2022/03/24 07:13:55;;;;;;;48.10;30.33;;;6.60;84.70;;;;;;5052843;28;20216;-82
2022/03/24 07:16:21;;;;;;;47.43;31.13;;;6.70;84.70;;;;;;5051247;28;20560;-82
2022/03/24 07:18:48;;;;;;;47.00;30.13;;;6.80;84.30;;;;;;5051987;28;20788;-82
2022/03/24 07:21:15;;;;;;;47.23;30.60;;;6.90;84.40;;;;;;5050306;28;20654;-82
2022/03/24 07:23:42;;;;;;;52.67;30.37;;;7.10;84.50;;;;;;5052664;28;20643;-82
2022/03/24 07:26:09;;;;;;;48.80;30.80;;;7.20;84.30;;;;;;5051599;28;20224;-82
2022/03/24 07:28:36;;;;;;;46.23;28.40;;;7.20;84.10;;;;;;5056907;28;20223;-82
2022/03/24 07:31:10;;;;;;;47.73;29.77;;;7.40;84.00;;;;;;5053740;28;20242;-82
2022/03/24 07:33:37;;;;;;;46.73;29.50;;;7.50;83.50;;;;;;5052539;28;20235;-82
2022/03/24 07:36:04;;;;;;;45.13;29.90;;;7.70;83.30;;;;;;5052262;28;20609;-83
2022/03/24 07:38:31;;;;;;;47.30;29.83;;;7.80;82.60;;;;;;5055209;28;20548;-82
2022/03/24 07:40:58;;;;;;;45.40;29.47;;;8.00;82.20;;;;;;5052769;28;20224;-84
2022/03/24 07:43:25;;;;;;;44.63;29.13;;;8.20;80.90;;;;;;5052471;28;20240;-86
2022/03/24 07:45:53;;;;;;;44.87;30.33;;;8.40;81.10;;;;;;5052125;28;20228;-81
2022/03/24 07:48:25;;;;;;;41.30;28.27;;;8.60;80.70;;;;;;5052450;28;20736;-82
2022/03/24 07:50:53;;;;;;;45.03;29.17;;;8.70;80.70;;;;;;5065454;28;20286;-82
2022/03/24 07:53:29;;;;;;;43.67;30.07;;;9.00;80.80;;;;;;5050006;28;20730;-82
2022/03/24 07:55:58;;;;;;;42.43;29.03;;;9.40;80.90;;;;;;5049916;28;20219;-81
2022/03/24 07:58:25;;;;;;;49.53;30.50;;;9.80;79.90;;;;;;5042989;28;20791;-81
2022/03/24 08:00:52;;;;;;;43.47;30.07;;;10.30;79.00;;;;;;5051325;28;20263;-81
2022/03/24 08:03:22;;;;;;;46.23;30.20;;;10.60;77.20;;;;;;5057567;28;20236;-81
2022/03/24 08:05:50;;;;;;;45.40;30.37;;;10.80;75.00;;;;;;5053482;28;20226;-80
2022/03/24 08:08:17;;;;;;;42.33;29.30;;;10.90;74.90;;;;;;5050338;28;20221;-81
2022/03/24 08:10:46;;;;;;;41.83;28.53;;;11.00;73.60;;;;;;5052871;28;20232;-83
2022/03/24 08:13:15;;;;;;;46.50;30.07;;;11.00;74.10;;;;;;5051531;28;20219;-82
2022/03/24 08:15:42;;;;;;;44.10;28.80;;;11.20;73.00;;;;;;5051429;28;20235;-83
2022/03/24 08:18:10;;;;;;;40.47;28.87;;;11.40;73.20;;;;;;5051354;28;20231;-83
2022/03/24 08:20:39;;;;;;;42.40;29.10;;;11.70;72.90;;;;;;5051453;28;20249;-83
2022/03/24 08:23:08;;;;;;;41.80;29.17;;;12.00;71.90;;;;;;5051724;28;20234;-83
2022/03/24 08:25:35;;;;;;;39.10;27.37;;;12.20;71.80;;;;;;5058319;28;20243;-84
2022/03/24 08:28:02;;;;;;;41.37;27.53;;;12.50;71.80;;;;;;5057694;28;20231;-84
2022/03/24 08:30:29;;;;;;;41.43;29.03;;;12.90;71.60;;;;;;5050915;28;20258;-83
2022/03/24 08:32:57;;;;;;;39.43;27.47;;;13.30;69.80;;;;;;5054374;28;20219;-83
2022/03/24 08:35:24;;;;;;;37.57;26.63;;;13.80;69.20;;;;;;5051244;28;20235;-83
2022/03/24 08:37:52;;;;;;;42.60;27.93;;;14.40;68.90;;;;;;5050450;28;20667;-84
2022/03/24 08:40:18;;;;;;;38.22;26.65;;;14.90;66.50;;;;;;5051285;28;20373;-83
2022/03/24 08:42:45;;;;;;;36.73;27.77;;;15.50;65.90;;;;;;5054908;28;20575;-84
2022/03/24 08:45:14;;;;;;;42.10;28.45;;;16.00;65.20;;;;;;5051250;28;20227;-84
2022/03/24 08:47:42;;;;;;;41.42;27.17;;;16.50;61.40;;;;;;5051234;28;21841;-86
2022/03/24 08:50:11;;;;;;;40.67;26.58;;;16.90;61.00;;;;;;5050257;28;20711;-84
2022/03/24 08:52:38;;;;;;;41.30;28.48;;;17.30;60.30;;;;;;5049113;28;20236;-85
2022/03/24 08:55:09;;;;;;;37.08;27.27;;;17.70;59.10;;;;;;5051068;28;20242;-84
2022/03/24 08:57:37;;;;;;;40.75;27.23;;;18.00;58.60;;;;;;5050064;28;20224;-86
2022/03/24 09:00:12;;;;;;;38.15;27.17;;;18.30;57.80;;;;;;5050275;28;20661;-84
2022/03/24 09:02:39;;;;;;;37.22;26.73;;;18.70;56.70;;;;;;5046092;28;20310;-84
2022/03/24 09:05:06;;;;;;;37.97;28.27;;;19.00;56.90;;;;;;5050848;28;20239;-83
2022/03/24 09:07:33;;;;;;;38.78;27.90;;;19.30;56.10;;;;;;5053282;28;20233;-86
2022/03/24 09:10:00;;;;;;;43.65;31.52;;;19.60;55.60;;;;;;5052188;28;20228;-84
2022/03/24 09:12:28;;;;;;;41.70;29.95;;;19.90;54.20;;;;;;5048091;28;20224;-84
2022/03/24 09:14:54;;;;;;;48.72;33.33;;;20.20;52.90;;;;;;5050761;28;20228;-84
2022/03/24 09:17:21;;;;;;;42.65;32.20;;;20.50;53.20;;;;;;5055844;28;20259;-85
2022/03/24 09:19:48;;;;;;;42.28;32.00;;;20.70;52.30;;;;;;5049572;28;20251;-84
2022/03/24 09:22:14;;;;;;;46.67;34.42;;;20.90;51.50;;;;;;5048996;28;20230;-83
2022/03/24 09:24:41;;;;;;;44.83;35.05;;;21.10;49.70;;;;;;5049871;28;20236;-85
2022/03/24 09:27:08;;;;;;;62.65;44.75;;;21.20;50.60;;;;;;5050029;28;20230;-84
2022/03/24 09:29:36;;;;;;;61.67;43.60;;;21.40;50.50;;;;;;5053257;28;20627;-84
2022/03/24 09:32:03;;;;;;;63.40;45.85;;;21.50;50.20;;;;;;5050549;28;20294;-85
2022/03/24 09:34:30;;;;;;;65.20;42.97;;;21.70;49.60;;;;;;5051006;28;20223;-84
2022/03/24 09:36:57;;;;;;;47.85;32.58;;;21.80;49.40;;;;;;5052029;28;20228;-85
2022/03/24 09:39:23;;;;;;;42.60;29.05;;;22.00;47.80;;;;;;5053732;28;20238;-84
2022/03/24 09:41:50;;;;;;;35.53;26.58;;;22.10;48.50;;;;;;5058338;28;20234;-84
2022/03/24 09:44:16;;;;;;;37.72;27.40;;;22.20;47.90;;;;;;5060946;28;20234;-84
2022/03/24 09:46:45;;;;;;;38.45;27.08;;;22.20;46.80;;;;;;5052624;28;20220;-84
2022/03/24 09:49:12;;;;;;;36.67;27.17;;;22.20;45.50;;;;;;5058102;28;20230;-84
2022/03/24 09:51:40;;;;;;;39.05;25.90;;;22.30;46.30;;;;;;5054681;28;20236;-85
2022/03/24 09:54:07;;;;;;;40.65;27.33;;;22.20;46.50;;;;;;5055731;28;20223;-85
2022/03/24 09:56:34;;;;;;;37.08;26.30;;;22.10;45.80;;;;;;5053489;28;20230;-86
2022/03/24 09:59:02;;;;;;;37.95;27.00;;;22.10;46.70;;;;;;5057495;28;20291;-85
2022/03/24 10:01:28;;;;;;;36.40;27.02;;;22.00;46.30;;;;;;5058213;28;20216;-85
2022/03/24 10:04:10;;;;;;;40.88;26.70;;;22.10;46.60;;;;;;5058954;28;20227;-84
2022/03/24 10:06:40;;;;;;;34.30;26.55;;;22.20;44.50;;;;;;5056304;28;20319;-85
2022/03/24 10:09:08;;;;;;;33.40;25.60;;;22.30;45.30;;;;;;5054131;28;20287;-85
2022/03/24 10:11:36;;;;;;;33.35;25.40;;;22.40;45.60;;;;;;5049437;28;20232;-84
2022/03/24 10:14:04;;;;;;;34.40;26.77;;;22.50;45.50;;;;;;5053036;28;20229;-84
2022/03/24 10:16:40;;;;;;;39.88;29.08;;;22.60;44.80;;;;;;5051090;28;20220;-84
2022/03/24 10:19:10;;;;;;;42.97;29.23;;;22.80;44.60;;;;;;5055091;28;20220;-85
2022/03/24 10:21:38;;;;;;;58.35;36.13;;;22.90;45.00;;;;;;5055308;28;20228;-84
2022/03/24 10:24:12;;;;;;;35.70;26.40;;;23.00;43.60;;;;;;5054009;28;20248;-86
2022/03/24 10:26:44;;;;;;;33.50;24.38;;;23.20;43.90;;;;;;5050850;28;20228;-86
2022/03/24 10:29:12;;;;;;;33.25;24.08;;;23.20;43.70;;;;;;5050070;28;20334;-85
2022/03/24 10:31:41;;;;;;;32.03;25.40;;;23.30;43.60;;;;;;5051145;28;20243;-84
2022/03/24 10:34:10;;;;;;;36.97;26.77;;;23.30;43.40;;;;;;5053895;28;20220;-84
2022/03/24 10:36:38;;;;;;;35.40;26.08;;;23.30;43.60;;;;;;5064712;28;20234;-84
2022/03/24 10:39:05;;;;;;;53.97;35.15;;;23.30;44.00;;;;;;5054406;28;20224;-85
2022/03/24 10:41:34;;;;;;;38.67;27.70;;;23.30;43.90;;;;;;5052250;28;20289;-86
2022/03/24 10:44:06;;;;;;;34.97;27.38;;;23.50;43.20;;;;;;5054746;28;20224;-84
2022/03/24 10:46:34;;;;;;;34.85;27.02;;;23.50;43.70;;;;;;5056759;28;20235;-85
2022/03/24 10:49:17;;;;;;;34.10;26.75;;;23.60;43.80;;;;;;5060058;28;20752;-85
2022/03/24 10:51:45;;;;;;;33.55;26.88;;;23.70;43.60;;;;;;5055169;28;20223;-84
2022/03/24 10:54:21;;;;;;;34.72;26.77;;;23.80;43.40;;;;;;5051082;28;20223;-84
2022/03/24 10:56:56;;;;;;;35.50;26.42;;;23.80;43.60;;;;;;5054952;28;20223;-84
2022/03/24 10:59:24;;;;;;;38.22;29.27;;;23.70;43.20;;;;;;5050596;28;20304;-84
2022/03/24 11:01:53;;;;;;;36.35;26.88;;;23.80;42.90;;;;;;5057133;28;20288;-84
2022/03/24 11:04:21;;;;;;;34.53;26.88;;;23.90;43.20;;;;;;5063284;28;20239;-84
2022/03/24 11:06:49;;;;;;;40.65;28.85;;;24.00;43.00;;;;;;5056238;28;20235;-84
2022/03/24 11:09:22;;;;;;;42.63;30.88;;;24.10;42.90;;;;;;5054915;28;20319;-84
2022/03/24 11:11:49;;;;;;;41.83;29.27;;;24.20;42.40;;;;;;5062097;28;20551;-84
2022/03/24 11:14:16;;;;;;;39.03;29.48;;;24.30;42.90;;;;;;5055575;28;20228;-84
2022/03/24 11:16:43;;;;;;;37.33;28.73;;;24.40;42.20;;;;;;5049472;28;20220;-84
2022/03/24 11:19:14;;;;;;;33.75;25.35;;;24.40;41.70;;;;;;5051725;28;20338;-84
2022/03/24 11:21:58;;;;;;;37.35;28.05;;;24.40;41.50;;;;;;5051606;28;20387;-85
2022/03/24 11:24:25;;;;;;;38.45;29.10;;;24.40;40.50;;;;;;5050168;28;20236;-84
2022/03/24 11:26:52;;;;;;;33.67;26.85;;;24.40;40.50;;;;;;5045290;28;20232;-84
2022/03/24 11:29:20;;;;;;;36.60;26.92;;;24.30;40.80;;;;;;5052167;28;20232;-84
2022/03/24 11:31:47;;;;;;;34.08;24.85;;;24.20;41.50;;;;;;5050024;28;20307;-84
2022/03/24 11:34:15;;;;;;;35.05;26.58;;;24.10;40.40;;;;;;5054105;28;20310;-84
2022/03/24 11:36:42;;;;;;;35.08;25.70;;;24.10;40.70;;;;;;5050575;28;20231;-83
2022/03/24 11:39:12;;;;;;;34.20;26.02;;;24.10;41.10;;;;;;5051908;28;20326;-84
2022/03/24 11:41:43;;;;;;;37.05;26.42;;;24.10;41.20;;;;;;5050618;28;20224;-84
2022/03/24 11:44:14;;;;;;;34.40;26.35;;;24.10;39.80;;;;;;5056391;28;20222;-83
2022/03/24 11:46:46;;;;;;;39.15;26.92;;;24.00;39.80;;;;;;5053919;28;20235;-85
2022/03/24 11:49:22;;;;;;;36.00;26.77;;;23.90;40.00;;;;;;5047460;28;20226;-85
2022/03/24 11:51:51;;;;;;;34.60;25.15;;;23.80;40.60;;;;;;5059054;28;20234;-84
2022/03/24 11:54:28;;;;;;;29.98;23.60;;;23.80;41.20;;;;;;5053431;28;20242;-83
2022/03/24 11:57:31;;;;;;;32.55;24.50;;;23.80;41.40;;;;;;5054771;28;20558;-84
2022/03/24 12:00:47;;;;;;;36.60;23.02;;;23.90;40.70;;;;;;5052233;28;20277;-84
2022/03/24 12:03:41;;;;;;;30.15;22.98;;;24.00;41.20;;;;;;5050730;28;20220;-84
2022/03/24 12:06:08;;;;;;;31.45;24.52;;;24.10;40.80;;;;;;5040945;28;20231;-83
2022/03/24 12:08:45;;;;;;;33.45;24.13;;;24.20;40.90;;;;;;5047742;28;20236;-83
2022/03/24 12:11:39;;;;;;;30.77;22.90;;;24.10;39.90;;;;;;5056701;28;20334;-84
2022/03/24 12:14:08;;;;;;;31.58;22.45;;;24.00;40.30;;;;;;5046991;28;20244;-85
2022/03/24 12:16:38;;;;;;;30.52;23.52;;;23.90;40.80;;;;;;5054264;28;20224;-83
2022/03/24 12:19:07;;;;;;;33.70;25.05;;;23.90;40.70;;;;;;5051343;28;20228;-85
2022/03/24 12:21:34;;;;;;;34.58;26.00;;;23.90;40.90;;;;;;5051226;28;20243;-84
2022/03/24 12:24:09;;;;;;;31.13;24.85;;;23.90;40.10;;;;;;5050254;28;20311;-84
2022/03/24 12:26:48;;;;;;;33.60;25.30;;;24.00;39.90;;;;;;5054981;28;20219;-84
2022/03/24 12:29:17;;;;;;;34.85;25.38;;;24.00;39.60;;;;;;5048719;28;20219;-84
2022/03/24 12:31:58;;;;;;;33.55;26.83;;;24.10;39.50;;;;;;5060211;28;20227;-84
2022/03/24 12:34:29;;;;;;;33.42;27.63;;;24.00;39.30;;;;;;5056727;28;21196;-84
2022/03/24 12:36:56;;;;;;;36.65;28.05;;;24.00;39.00;;;;;;5052319;28;20223;-83
2022/03/24 12:39:34;;;;;;;34.08;26.75;;;23.80;39.00;;;;;;5053474;28;20224;-84